Terminal Aerodrome Forecast
Issued by NWS

Home | Current Version | Previous Version | Text Only | Print | Product List | Glossary On
Versions: 1 2 3 4 5 6 7 8 9 10 11 12 13 14 15 16 17 18 19 20 21 22 23 24 25 26 27
000
FTUS43 KGLD 031140
TAFMCK
TAF
KMCK 031140Z 0312/0412 VRB04KT 4SM BR BKN005
     FM031600 VRB05KT P6SM SCT015 SCT120
     FM031900 05006KT P6SM SCT060
     FM040100 13006KT P6SM SCT050
     FM040600 16007KT P6SM VCTS SCT040CB BKN120=

USA.gov is the U.S. government's official web portal to all federal, state and local government web resources and services.